Saint Hilaire, Minnesota
Current Conditions -  °F | °C
As of 11:55 PM on Wednesday 17 Dec 2014 (Local Time) from KTVF Reporting Station
Clear Clear  
Wind Chill: -12°   Ceiling: Unl
Heat Index: -12°   Visibility: 10mi
Dew Point: -14°   Wind: 0mph
Humidity: 85%   Direction: NA
Pressure: 30.3"   Gusts: NA
Location:  48.01°N, 96.21°W
Report Text: KTVF 180555Z AUTO 00000KT 10SM CLR M12/M14 A3030 RMK AO1 11100 21130 410801160 52003
Loading
Personal Weather Stations






























Interactive Weather Map New forecast layout! Learn more

10-Day Weather Forecast

Advertisements
Track Severe Weather on mobile